Terminal Aerodrome Forecast
Issued by NWS

Home | Current Version | Previous Version | Graphics & Text | Print | Product List | Glossary On
Versions: 1 2 3 4 5 6 7 8 9 10 11 12 13 14 15 16 17 18 19 20 21 22 23 24 25 26 27 28
000
FTUS43 KGRB 172332
TAFATW
TAF
KATW 172332Z 1800/1824 23009KT P6SM SCT017 BKN040
      TEMPO 1800/1803 BKN017
     FM180300 27010KT P6SM SCT040
     FM180600 23005KT P6SM SCT100
     FM181600 17015G24KT P6SM BKN110 WS020/20050KT=

USA.gov is the U.S. government's official web portal to all federal, state and local government web resources and services.